createdAt,value
2023-01-17T00:00:12.205Z,971.81
2023-01-17T00:01:12.147Z,971.77
2023-01-17T00:02:12.145Z,971.81
2023-01-17T00:03:12.135Z,971.85
2023-01-17T00:04:12.200Z,971.85
2023-01-17T00:05:12.117Z,971.83
2023-01-17T00:06:12.066Z,971.83
2023-01-17T00:07:12.127Z,971.83
2023-01-17T00:08:12.130Z,971.80
2023-01-17T00:09:12.107Z,971.72
2023-01-17T00:10:12.088Z,971.67
2023-01-17T00:11:12.058Z,971.77
2023-01-17T00:12:12.062Z,971.71
2023-01-17T00:13:12.060Z,971.70
2023-01-17T00:14:12.042Z,971.72
2023-01-17T00:15:12.057Z,971.75
2023-01-17T00:16:13.003Z,971.70
2023-01-17T00:17:11.994Z,971.77
2023-01-17T00:18:12.020Z,971.77
2023-01-17T00:19:11.992Z,971.75
2023-01-17T00:20:11.973Z,971.77
2023-01-17T00:21:11.949Z,971.78
2023-01-17T00:22:11.945Z,971.77
2023-01-17T00:23:11.987Z,971.74
2023-01-17T00:24:11.950Z,971.77
2023-01-17T00:25:11.913Z,971.79
2023-01-17T00:26:11.875Z,971.76
2023-01-17T00:27:11.897Z,971.79
2023-01-17T00:28:11.916Z,971.80
2023-01-17T00:29:11.922Z,971.78
2023-01-17T00:30:11.871Z,971.75
2023-01-17T00:31:11.881Z,971.78
2023-01-17T00:32:11.873Z,971.83
2023-01-17T00:33:11.852Z,971.86
2023-01-17T00:34:11.844Z,971.86
2023-01-17T00:35:11.808Z,971.90
2023-01-17T00:36:11.834Z,971.90
2023-01-17T00:37:11.805Z,971.83
2023-01-17T00:38:11.773Z,971.93
2023-01-17T00:39:11.787Z,971.90
2023-01-17T00:40:11.798Z,972.00
2023-01-17T00:41:11.750Z,972.02
2023-01-17T00:42:11.742Z,972.10
2023-01-17T00:43:11.746Z,972.01
2023-01-17T00:44:11.707Z,972.03
2023-01-17T00:45:11.763Z,972.03
2023-01-17T00:46:11.728Z,972.09
2023-01-17T00:47:11.706Z,971.98
2023-01-17T00:48:11.661Z,972.10
2023-01-17T00:49:11.707Z,972.12
2023-01-17T00:50:11.655Z,972.11
2023-01-17T00:51:11.700Z,972.16
2023-01-17T00:52:11.679Z,972.13
2023-01-17T00:53:11.652Z,972.16
2023-01-17T00:54:11.628Z,972.21
2023-01-17T00:55:11.603Z,972.21
2023-01-17T00:56:11.635Z,972.19
2023-01-17T00:57:11.607Z,972.25
2023-01-17T00:58:11.647Z,972.25
2023-01-17T00:59:11.592Z,972.25
2023-01-17T01:00:11.548Z,972.23
2023-01-17T01:01:11.615Z,972.28
2023-01-17T01:02:11.633Z,972.28
2023-01-17T01:03:11.531Z,972.25
2023-01-17T01:04:11.532Z,972.30
2023-01-17T01:05:11.503Z,972.31
2023-01-17T01:06:11.528Z,972.34
2023-01-17T01:07:11.505Z,972.28
2023-01-17T01:08:11.557Z,972.30
2023-01-17T01:09:11.515Z,972.34
2023-01-17T01:10:11.463Z,972.32
2023-01-17T01:11:11.523Z,972.47
2023-01-17T01:12:11.440Z,972.50
2023-01-17T01:13:11.439Z,972.49
2023-01-17T01:14:11.442Z,972.50
2023-01-17T01:15:11.466Z,972.53
2023-01-17T01:16:11.461Z,972.55
2023-01-17T01:17:11.405Z,972.56
2023-01-17T01:18:11.419Z,972.66
2023-01-17T01:19:11.383Z,972.66
2023-01-17T01:20:11.383Z,972.64
2023-01-17T01:21:11.398Z,972.60
2023-01-17T01:22:11.355Z,972.62
2023-01-17T01:23:11.313Z,972.70
2023-01-17T01:24:11.338Z,972.60
2023-01-17T01:25:11.325Z,972.68
2023-01-17T01:26:11.299Z,972.69
2023-01-17T01:27:11.311Z,972.75
2023-01-17T01:28:11.319Z,972.70
2023-01-17T01:29:11.250Z,972.76
2023-01-17T01:30:11.270Z,972.76
2023-01-17T01:31:11.376Z,972.78
2023-01-17T01:32:11.249Z,972.87
2023-01-17T01:33:11.248Z,972.83
2023-01-17T01:34:11.423Z,972.88
2023-01-17T01:35:11.197Z,972.92
2023-01-17T01:36:11.242Z,972.92
2023-01-17T01:37:11.178Z,972.92
2023-01-17T01:38:11.208Z,972.91
2023-01-17T01:39:11.184Z,973.00
2023-01-17T01:40:11.212Z,973.02
2023-01-17T01:41:11.162Z,973.07
2023-01-17T01:42:11.244Z,973.04
2023-01-17T01:43:11.107Z,972.99
2023-01-17T01:44:11.150Z,973.03
2023-01-17T01:45:11.101Z,973.05
2023-01-17T01:46:11.212Z,973.04
2023-01-17T01:47:11.080Z,973.08
2023-01-17T01:48:11.096Z,973.15
2023-01-17T01:49:11.107Z,973.19
2023-01-17T01:50:11.070Z,973.15
2023-01-17T01:51:11.106Z,973.16
2023-01-17T01:52:11.078Z,973.22
2023-01-17T01:53:11.047Z,973.21
2023-01-17T01:54:11.023Z,973.12
2023-01-17T01:55:11.006Z,973.18
2023-01-17T01:56:11.055Z,973.26
2023-01-17T01:57:11.083Z,973.29
2023-01-17T01:58:11.023Z,973.34
2023-01-17T01:59:10.990Z,973.24
2023-01-17T02:00:11.013Z,973.26
2023-01-17T02:01:11.068Z,973.29
2023-01-17T02:02:10.980Z,973.30
2023-01-17T02:03:10.972Z,973.28
2023-01-17T02:04:11.004Z,973.34
2023-01-17T02:05:10.998Z,973.40
2023-01-17T02:06:10.891Z,973.45
2023-01-17T02:07:10.977Z,973.45
2023-01-17T02:08:10.894Z,973.42
2023-01-17T02:09:10.915Z,973.42
2023-01-17T02:10:10.928Z,973.39
2023-01-17T02:11:10.858Z,973.50
2023-01-17T02:12:10.886Z,973.54
2023-01-17T02:13:10.821Z,973.49
2023-01-17T02:14:10.863Z,973.51
2023-01-17T02:15:10.854Z,973.57
2023-01-17T02:16:10.816Z,973.60
2023-01-17T02:17:10.860Z,973.53
2023-01-17T02:18:10.794Z,973.60
2023-01-17T02:19:10.797Z,973.62
2023-01-17T02:20:10.836Z,973.62
2023-01-17T02:21:10.797Z,973.43
2023-01-17T02:22:10.786Z,973.61
2023-01-17T02:23:14.225Z,973.59
2023-01-17T02:24:10.779Z,973.64
2023-01-17T02:25:10.685Z,973.63
2023-01-17T02:26:10.727Z,973.63
2023-01-17T02:27:10.685Z,973.62
2023-01-17T02:28:10.732Z,973.60
2023-01-17T02:29:10.740Z,973.63
2023-01-17T02:30:10.663Z,973.65
2023-01-17T02:31:10.715Z,973.63
2023-01-17T02:32:10.699Z,973.62
2023-01-17T02:33:10.635Z,973.62
2023-01-17T02:34:10.610Z,973.64
2023-01-17T02:35:10.594Z,973.53
2023-01-17T02:36:10.604Z,973.59
2023-01-17T02:37:10.572Z,973.61
2023-01-17T02:38:10.584Z,973.57
2023-01-17T02:39:10.596Z,973.55
2023-01-17T02:40:10.574Z,973.58
2023-01-17T02:41:10.537Z,973.70
2023-01-17T02:42:10.542Z,973.56
2023-01-17T02:43:10.543Z,973.54
2023-01-17T02:44:10.540Z,973.60
2023-01-17T02:45:10.502Z,973.63
2023-01-17T02:46:10.551Z,973.54
2023-01-17T02:47:10.476Z,973.64
2023-01-17T02:48:10.513Z,973.59
2023-01-17T02:49:10.481Z,973.57
2023-01-17T02:50:10.483Z,973.64
2023-01-17T02:51:10.485Z,973.56
2023-01-17T02:52:10.439Z,973.69
2023-01-17T02:53:10.403Z,973.80
2023-01-17T02:54:10.470Z,973.69
2023-01-17T02:55:10.384Z,973.74
2023-01-17T02:56:10.397Z,973.74
2023-01-17T02:57:10.441Z,973.74
2023-01-17T02:58:10.391Z,973.79
2023-01-17T02:59:10.354Z,973.82
2023-01-17T03:00:10.374Z,973.81
2023-01-17T03:01:10.409Z,973.80
2023-01-17T03:02:10.420Z,973.85
2023-01-17T03:03:10.319Z,973.89
2023-01-17T03:04:10.302Z,973.89
2023-01-17T03:05:10.298Z,973.91
2023-01-17T03:06:10.292Z,974.00
2023-01-17T03:07:10.328Z,973.97
2023-01-17T03:08:10.263Z,974.00
2023-01-17T03:09:10.277Z,973.98
2023-01-17T03:10:10.273Z,974.01
2023-01-17T03:11:10.250Z,974.03
2023-01-17T03:12:10.245Z,974.00
2023-01-17T03:13:10.224Z,974.02
2023-01-17T03:14:10.246Z,973.99
2023-01-17T03:15:10.178Z,974.08
2023-01-17T03:16:12.609Z,974.00
2023-01-17T03:17:10.190Z,974.05
2023-01-17T03:18:10.213Z,973.97
2023-01-17T03:19:10.165Z,974.00
2023-01-17T03:20:10.139Z,973.99
2023-01-17T03:21:10.177Z,973.94
2023-01-17T03:22:10.124Z,973.95
2023-01-17T03:23:10.117Z,973.91
2023-01-17T03:24:10.091Z,973.94
2023-01-17T03:25:10.069Z,973.97
2023-01-17T03:26:10.120Z,974.02
2023-01-17T03:27:10.072Z,974.02
2023-01-17T03:28:10.071Z,974.02
2023-01-17T03:29:10.041Z,974.03
2023-01-17T03:30:10.049Z,974.08
2023-01-17T03:31:10.009Z,974.00
2023-01-17T03:32:10.071Z,974.02
2023-01-17T03:33:10.000Z,974.13
2023-01-17T03:34:10.000Z,974.12
2023-01-17T03:35:10.012Z,974.08
2023-01-17T03:36:09.972Z,974.04
2023-01-17T03:37:09.953Z,974.04
2023-01-17T03:38:09.972Z,974.05
2023-01-17T03:39:09.946Z,974.05
2023-01-17T03:40:09.922Z,974.08
2023-01-17T03:41:09.900Z,974.13
2023-01-17T03:42:09.936Z,974.13
2023-01-17T03:43:09.921Z,974.18
2023-01-17T03:44:09.919Z,974.16
2023-01-17T03:45:09.864Z,974.17
2023-01-17T03:46:09.907Z,974.16
2023-01-17T03:47:09.833Z,974.20
2023-01-17T03:48:09.867Z,974.22
2023-01-17T03:49:09.845Z,974.23
2023-01-17T03:50:09.852Z,974.23
2023-01-17T03:51:09.799Z,974.30
2023-01-17T03:52:09.805Z,974.31
2023-01-17T03:53:09.834Z,974.31
2023-01-17T03:54:09.790Z,974.34
2023-01-17T03:55:09.759Z,974.33
2023-01-17T03:56:09.773Z,974.35
2023-01-17T03:57:09.751Z,974.40
2023-01-17T03:58:09.772Z,974.38
2023-01-17T03:59:12.185Z,974.39
2023-01-17T04:00:09.759Z,974.39
2023-01-17T04:01:09.806Z,974.43
2023-01-17T04:02:09.851Z,974.47
2023-01-17T04:03:09.685Z,974.50
2023-01-17T04:04:09.715Z,974.45
2023-01-17T04:05:09.701Z,974.45
2023-01-17T04:06:09.663Z,974.47
2023-01-17T04:07:09.665Z,974.52
2023-01-17T04:08:09.689Z,974.53
2023-01-17T04:09:09.616Z,974.53
2023-01-17T04:10:09.665Z,974.51
2023-01-17T04:11:09.611Z,974.53
2023-01-17T04:12:09.602Z,974.53
2023-01-17T04:13:09.603Z,974.57
2023-01-17T04:14:09.572Z,974.59
2023-01-17T04:15:09.616Z,974.57
2023-01-17T04:16:09.559Z,974.59
2023-01-17T04:17:09.538Z,974.63
2023-01-17T04:18:09.537Z,974.62
2023-01-17T04:19:09.520Z,974.62
2023-01-17T04:20:09.541Z,974.63
2023-01-17T04:21:09.523Z,974.61
2023-01-17T04:22:09.511Z,974.59
2023-01-17T04:23:09.486Z,974.59
2023-01-17T04:24:09.488Z,974.61
2023-01-17T04:25:09.458Z,974.67
2023-01-17T04:26:09.463Z,974.66
2023-01-17T04:27:09.439Z,974.66
2023-01-17T04:28:09.433Z,974.70
2023-01-17T04:29:09.407Z,974.72
2023-01-17T04:30:09.429Z,974.68
2023-01-17T04:31:09.439Z,974.69
2023-01-17T04:32:09.439Z,974.79
2023-01-17T04:33:09.373Z,974.75
2023-01-17T04:34:09.385Z,974.78
2023-01-17T04:35:09.343Z,974.78
2023-01-17T04:36:09.352Z,974.74
2023-01-17T04:37:09.384Z,974.76
2023-01-17T04:38:09.331Z,974.76
2023-01-17T04:39:09.313Z,974.76
2023-01-17T04:40:09.334Z,974.80
2023-01-17T04:41:09.313Z,974.79
2023-01-17T04:42:09.327Z,974.78
2023-01-17T04:43:09.270Z,974.79
2023-01-17T04:44:09.295Z,974.79
2023-01-17T04:45:09.245Z,974.83
2023-01-17T04:46:09.251Z,974.83
2023-01-17T04:47:09.222Z,974.84
2023-01-17T04:48:09.271Z,974.82
2023-01-17T04:49:09.207Z,974.83
2023-01-17T04:50:09.225Z,974.87
2023-01-17T04:51:09.265Z,974.84
2023-01-17T04:52:09.183Z,974.86
2023-01-17T04:53:09.197Z,974.83
2023-01-17T04:54:09.178Z,974.87
2023-01-17T04:55:09.143Z,974.86
2023-01-17T04:56:09.166Z,974.86
2023-01-17T04:57:09.116Z,974.80
2023-01-17T04:58:09.191Z,974.85
2023-01-17T04:59:09.118Z,974.83
2023-01-17T05:00:09.086Z,974.87
2023-01-17T05:01:09.180Z,974.87
2023-01-17T05:02:09.117Z,974.92
2023-01-17T05:03:09.059Z,974.90
2023-01-17T05:04:09.088Z,974.87
2023-01-17T05:05:09.067Z,974.90
2023-01-17T05:06:09.068Z,974.90
2023-01-17T05:07:09.033Z,974.92
2023-01-17T05:08:09.024Z,974.90
2023-01-17T05:09:09.052Z,974.90
2023-01-17T05:10:09.003Z,974.95
2023-01-17T05:11:08.979Z,974.93
2023-01-17T05:12:09.018Z,974.92
2023-01-17T05:13:08.955Z,974.90
2023-01-17T05:14:08.969Z,974.96
2023-01-17T05:15:08.933Z,974.91
2023-01-17T05:16:08.998Z,974.93
2023-01-17T05:17:08.902Z,974.92
2023-01-17T05:18:08.936Z,974.92
2023-01-17T05:19:08.900Z,974.94
2023-01-17T05:20:08.942Z,974.92
2023-01-17T05:21:08.886Z,974.91
2023-01-17T05:22:08.883Z,974.91
2023-01-17T05:23:08.861Z,974.95
2023-01-17T05:24:08.838Z,974.99
2023-01-17T05:25:08.881Z,974.97
2023-01-17T05:26:08.868Z,974.98
2023-01-17T05:27:08.826Z,975.01
2023-01-17T05:28:08.806Z,974.99
2023-01-17T05:29:08.831Z,974.99
2023-01-17T05:30:08.796Z,975.01
2023-01-17T05:31:08.840Z,975.04
2023-01-17T05:32:08.752Z,974.97
2023-01-17T05:33:08.792Z,974.94
2023-01-17T05:34:08.736Z,974.99
2023-01-17T05:35:08.729Z,974.98
2023-01-17T05:36:08.737Z,974.95
2023-01-17T05:37:08.738Z,974.97
2023-01-17T05:38:08.693Z,975.00
2023-01-17T05:39:08.689Z,974.99
2023-01-17T05:40:08.697Z,974.98
2023-01-17T05:41:08.715Z,975.02
2023-01-17T05:42:08.649Z,975.01
2023-01-17T05:43:08.699Z,975.00
2023-01-17T05:44:08.627Z,975.00
2023-01-17T05:45:08.626Z,975.02
2023-01-17T05:46:08.684Z,975.05
2023-01-17T05:47:08.631Z,975.06
2023-01-17T05:48:08.590Z,975.08
2023-01-17T05:49:08.579Z,975.06
2023-01-17T05:50:08.576Z,975.11
2023-01-17T05:51:08.614Z,975.14
2023-01-17T05:52:08.555Z,975.17
2023-01-17T05:53:08.557Z,975.14
2023-01-17T05:54:08.524Z,975.12
2023-01-17T05:55:08.540Z,975.19
2023-01-17T05:56:08.513Z,975.17
2023-01-17T05:57:08.532Z,975.12
2023-01-17T05:58:08.477Z,975.12
2023-01-17T05:59:08.501Z,975.13
2023-01-17T06:00:08.464Z,975.17
2023-01-17T06:01:08.485Z,975.08
2023-01-17T06:02:08.492Z,975.13
2023-01-17T06:03:08.501Z,975.16
2023-01-17T06:04:08.452Z,975.14
2023-01-17T06:05:08.439Z,975.16
2023-01-17T06:06:08.427Z,975.19
2023-01-17T06:07:08.443Z,975.17
2023-01-17T06:08:08.374Z,975.24
2023-01-17T06:09:08.395Z,975.18
2023-01-17T06:10:08.356Z,975.20
2023-01-17T06:11:08.394Z,975.20
2023-01-17T06:12:08.330Z,975.18
2023-01-17T06:13:08.360Z,975.21
2023-01-17T06:14:08.335Z,975.16
2023-01-17T06:15:08.325Z,975.15
2023-01-17T06:16:08.434Z,975.17
2023-01-17T06:17:08.304Z,975.17
2023-01-17T06:18:08.316Z,975.13
2023-01-17T06:19:08.331Z,975.14
2023-01-17T06:20:08.267Z,975.06
2023-01-17T06:21:08.279Z,975.10
2023-01-17T06:22:08.229Z,975.13
2023-01-17T06:23:08.245Z,975.07
2023-01-17T06:24:08.242Z,975.06
2023-01-17T06:25:08.247Z,975.07
2023-01-17T06:26:08.192Z,975.10
2023-01-17T06:27:08.196Z,975.10
2023-01-17T06:28:08.199Z,975.10
2023-01-17T06:29:08.185Z,975.11
2023-01-17T06:30:08.209Z,975.13
2023-01-17T06:31:08.220Z,975.10
2023-01-17T06:32:08.154Z,975.11
2023-01-17T06:33:08.124Z,975.17
2023-01-17T06:34:08.147Z,975.22
2023-01-17T06:35:08.104Z,975.21
2023-01-17T06:36:08.093Z,975.19
2023-01-17T06:37:08.087Z,975.23
2023-01-17T06:38:08.085Z,975.22
2023-01-17T06:39:08.098Z,975.23
2023-01-17T06:40:08.062Z,975.27
2023-01-17T06:41:08.044Z,975.25
2023-01-17T06:42:08.023Z,975.23
2023-01-17T06:43:08.056Z,975.23
2023-01-17T06:44:08.045Z,975.24
2023-01-17T06:45:08.049Z,975.27
2023-01-17T06:46:07.997Z,975.28
2023-01-17T06:47:07.981Z,975.20
2023-01-17T06:48:08.005Z,975.24
2023-01-17T06:49:07.957Z,975.23
2023-01-17T06:50:08.002Z,975.22
2023-01-17T06:51:07.944Z,975.20
2023-01-17T06:52:07.959Z,975.25
2023-01-17T06:53:07.957Z,975.20
2023-01-17T06:54:07.927Z,975.21
2023-01-17T06:55:07.975Z,975.22
2023-01-17T06:56:07.892Z,975.25
2023-01-17T06:57:07.892Z,975.28
2023-01-17T06:58:07.877Z,975.25
2023-01-17T06:59:07.869Z,975.25
2023-01-17T07:00:07.908Z,975.27
2023-01-17T07:01:07.893Z,975.29
2023-01-17T07:02:07.831Z,975.26
2023-01-17T07:03:07.831Z,975.27
2023-01-17T07:04:07.924Z,975.33
2023-01-17T07:05:07.821Z,975.27
2023-01-17T07:06:07.798Z,975.22
2023-01-17T07:07:07.806Z,975.24
2023-01-17T07:08:07.766Z,975.24
2023-01-17T07:09:07.747Z,975.22
2023-01-17T07:10:07.752Z,975.24
2023-01-17T07:11:07.776Z,975.24
2023-01-17T07:12:07.737Z,975.26
2023-01-17T07:13:07.748Z,975.27
2023-01-17T07:14:07.705Z,975.22
2023-01-17T07:15:07.709Z,975.29
2023-01-17T07:16:07.766Z,975.22
2023-01-17T07:17:07.699Z,975.21
2023-01-17T07:18:07.689Z,975.24
2023-01-17T07:19:07.709Z,975.22
2023-01-17T07:20:07.640Z,975.20
2023-01-17T07:21:07.694Z,975.19
2023-01-17T07:22:07.620Z,975.20
2023-01-17T07:23:07.616Z,975.20
2023-01-17T07:24:07.595Z,975.17
2023-01-17T07:25:07.591Z,975.17
2023-01-17T07:26:07.617Z,975.16
2023-01-17T07:27:07.606Z,975.21
2023-01-17T07:28:07.585Z,975.17
2023-01-17T07:29:07.568Z,975.20
2023-01-17T07:30:07.539Z,975.18
2023-01-17T07:31:07.639Z,975.18
2023-01-17T07:32:07.560Z,975.16
2023-01-17T07:33:07.563Z,975.19
2023-01-17T07:34:07.523Z,975.16
2023-01-17T07:35:07.571Z,975.18
2023-01-17T07:36:07.635Z,975.13
2023-01-17T07:37:07.551Z,975.15
2023-01-17T07:38:07.501Z,975.10
2023-01-17T07:39:07.682Z,975.12
2023-01-17T07:40:07.503Z,975.11
2023-01-17T07:41:08.093Z,975.12
2023-01-17T07:42:07.512Z,975.14
2023-01-17T07:43:07.607Z,975.17
2023-01-17T07:44:09.189Z,975.15
2023-01-17T07:45:07.390Z,975.19
2023-01-17T07:46:07.372Z,975.17
2023-01-17T07:47:07.380Z,975.19
2023-01-17T07:48:07.395Z,975.21
2023-01-17T07:49:07.353Z,975.19
2023-01-17T07:50:07.408Z,975.18
2023-01-17T07:51:07.325Z,975.19
2023-01-17T07:52:07.316Z,975.15
2023-01-17T07:53:07.363Z,975.18
2023-01-17T07:54:07.349Z,975.16
2023-01-17T07:55:07.367Z,975.16
2023-01-17T07:56:07.264Z,975.19
2023-01-17T07:57:07.365Z,975.20
2023-01-17T07:58:07.261Z,975.17
2023-01-17T07:59:07.585Z,975.19
2023-01-17T08:00:07.208Z,975.12
2023-01-17T08:01:07.428Z,975.13
2023-01-17T08:02:07.240Z,975.15
2023-01-17T08:03:07.333Z,975.13
2023-01-17T08:04:07.289Z,975.13
2023-01-17T08:05:07.200Z,975.11
2023-01-17T08:06:07.195Z,975.09
2023-01-17T08:07:07.172Z,975.08
2023-01-17T08:08:07.188Z,975.06
2023-01-17T08:09:07.153Z,975.07
2023-01-17T08:10:07.150Z,975.09
2023-01-17T08:11:07.134Z,975.14
2023-01-17T08:12:07.127Z,975.10
2023-01-17T08:13:07.119Z,975.14
2023-01-17T08:14:07.117Z,975.15
2023-01-17T08:15:07.134Z,975.15
2023-01-17T08:16:07.128Z,975.11
2023-01-17T08:17:07.076Z,975.14
2023-01-17T08:18:07.063Z,975.15
2023-01-17T08:19:07.093Z,975.11
2023-01-17T08:20:07.029Z,975.13
2023-01-17T08:21:07.065Z,975.13
2023-01-17T08:22:07.035Z,975.07
2023-01-17T08:23:06.988Z,975.05
2023-01-17T08:24:06.985Z,975.04
2023-01-17T08:25:06.999Z,975.07
2023-01-17T08:26:06.982Z,975.05
2023-01-17T08:27:07.075Z,975.02
2023-01-17T08:28:06.961Z,975.01
2023-01-17T08:29:06.921Z,974.95
2023-01-17T08:30:06.948Z,974.96
2023-01-17T08:31:06.933Z,974.94
2023-01-17T08:32:06.918Z,974.94
2023-01-17T08:33:06.928Z,974.91
2023-01-17T08:34:06.890Z,974.90
2023-01-17T08:35:06.892Z,974.87
2023-01-17T08:36:06.903Z,974.94
2023-01-17T08:37:06.851Z,974.88
2023-01-17T08:38:06.889Z,974.89
2023-01-17T08:39:06.852Z,974.91
2023-01-17T08:40:06.802Z,974.92
2023-01-17T08:41:06.827Z,974.91
2023-01-17T08:42:06.800Z,974.89
2023-01-17T08:43:06.788Z,974.93
2023-01-17T08:44:06.761Z,974.87
2023-01-17T08:45:06.829Z,974.86
2023-01-17T08:46:06.824Z,974.89
2023-01-17T08:47:06.735Z,974.85
2023-01-17T08:48:06.724Z,974.84
2023-01-17T08:49:06.729Z,974.80
2023-01-17T08:50:06.748Z,974.80
2023-01-17T08:51:06.721Z,974.83
2023-01-17T08:52:06.683Z,974.85
2023-01-17T08:53:06.704Z,974.79
2023-01-17T08:54:06.668Z,974.81
2023-01-17T08:55:06.692Z,974.76
2023-01-17T08:56:06.693Z,974.73
2023-01-17T08:57:06.686Z,974.76
2023-01-17T08:58:06.612Z,974.69
2023-01-17T08:59:06.648Z,974.72
2023-01-17T09:00:06.652Z,974.69
2023-01-17T09:01:06.793Z,974.71
2023-01-17T09:02:06.747Z,974.66
2023-01-17T09:03:06.628Z,974.62
2023-01-17T09:04:06.618Z,974.60
2023-01-17T09:05:06.810Z,974.61
2023-01-17T09:06:06.537Z,974.64
2023-01-17T09:07:06.611Z,974.61
2023-01-17T09:08:06.534Z,974.61
2023-01-17T09:09:06.543Z,974.68
2023-01-17T09:10:06.542Z,974.62
2023-01-17T09:11:06.543Z,974.70
2023-01-17T09:12:06.513Z,974.68
2023-01-17T09:13:06.539Z,974.66
2023-01-17T09:14:06.486Z,974.69
2023-01-17T09:15:06.516Z,974.70
2023-01-17T09:16:06.504Z,974.68
2023-01-17T09:17:06.484Z,974.67
2023-01-17T09:18:06.436Z,974.69
2023-01-17T09:19:06.486Z,974.70
2023-01-17T09:20:06.440Z,974.74
2023-01-17T09:21:06.415Z,974.77
2023-01-17T09:22:06.432Z,974.81
2023-01-17T09:23:06.398Z,974.81
2023-01-17T09:24:06.418Z,974.81
2023-01-17T09:25:06.373Z,974.82
2023-01-17T09:26:06.377Z,974.80
2023-01-17T09:27:06.381Z,974.85
2023-01-17T09:28:06.347Z,974.87
2023-01-17T09:29:06.340Z,974.86
2023-01-17T09:30:06.347Z,974.87
2023-01-17T09:31:06.363Z,974.84
2023-01-17T09:32:06.291Z,974.83
2023-01-17T09:33:06.322Z,974.88
2023-01-17T09:34:06.315Z,974.85
2023-01-17T09:35:06.264Z,974.88
2023-01-17T09:36:06.263Z,974.85
2023-01-17T09:37:06.266Z,974.89
2023-01-17T09:38:06.273Z,974.87
2023-01-17T09:39:06.218Z,974.88
2023-01-17T09:40:06.239Z,974.88
2023-01-17T09:41:06.209Z,974.92
2023-01-17T09:42:06.183Z,974.89
2023-01-17T09:43:06.181Z,974.94
2023-01-17T09:44:06.223Z,974.95
2023-01-17T09:45:06.219Z,975.00
2023-01-17T09:46:06.218Z,974.96
2023-01-17T09:47:06.185Z,974.99
2023-01-17T09:48:06.147Z,975.02
2023-01-17T09:49:06.302Z,975.05
2023-01-17T09:50:06.144Z,974.99
2023-01-17T09:51:06.113Z,975.04
2023-01-17T09:52:06.137Z,975.04
2023-01-17T09:53:06.077Z,975.04
2023-01-17T09:54:06.095Z,975.02
2023-01-17T09:55:07.955Z,975.06
2023-01-17T09:56:06.088Z,975.04
2023-01-17T09:57:06.252Z,975.06
2023-01-17T09:58:06.253Z,975.08
2023-01-17T09:59:06.035Z,975.09
2023-01-17T10:00:06.034Z,975.11
2023-01-17T10:01:06.149Z,975.11
2023-01-17T10:02:06.289Z,975.09
2023-01-17T10:03:06.080Z,975.10
2023-01-17T10:04:06.068Z,975.11
2023-01-17T10:05:06.073Z,975.13
2023-01-17T10:06:05.966Z,975.16
2023-01-17T10:07:05.957Z,975.17
2023-01-17T10:08:05.928Z,975.20
2023-01-17T10:09:05.976Z,975.22
2023-01-17T10:10:05.921Z,975.23
2023-01-17T10:11:05.968Z,975.21
2023-01-17T10:12:05.903Z,975.19
2023-01-17T10:13:06.106Z,975.22
2023-01-17T10:14:06.858Z,975.21
2023-01-17T10:15:05.901Z,975.14
2023-01-17T10:16:05.917Z,975.20
2023-01-17T10:17:05.829Z,975.17
2023-01-17T10:18:05.815Z,975.11
2023-01-17T10:19:05.860Z,975.17
2023-01-17T10:20:05.899Z,975.19
2023-01-17T10:21:05.793Z,975.16
2023-01-17T10:22:05.795Z,975.17
2023-01-17T10:23:05.797Z,975.17
2023-01-17T10:24:05.836Z,975.18
2023-01-17T10:25:05.788Z,975.22
2023-01-17T10:26:05.754Z,975.20
2023-01-17T10:27:05.772Z,975.22
2023-01-17T10:28:05.716Z,975.22
2023-01-17T10:29:05.736Z,975.19
2023-01-17T10:30:05.719Z,975.23
2023-01-17T10:31:05.746Z,975.19
2023-01-17T10:32:05.734Z,975.17
2023-01-17T10:33:05.716Z,975.17
2023-01-17T10:34:05.775Z,975.22
2023-01-17T10:35:05.642Z,975.17
2023-01-17T10:36:05.678Z,975.16
2023-01-17T10:37:05.626Z,975.17
2023-01-17T10:38:05.626Z,975.19
2023-01-17T10:39:05.614Z,975.18
2023-01-17T10:40:05.617Z,975.17
2023-01-17T10:41:05.589Z,975.14
2023-01-17T10:42:05.652Z,975.17
2023-01-17T10:43:05.567Z,975.13
2023-01-17T10:44:05.550Z,975.12
2023-01-17T10:45:05.517Z,975.07
2023-01-17T10:46:05.589Z,975.04
2023-01-17T10:47:05.499Z,975.03
2023-01-17T10:48:05.532Z,975.05
2023-01-17T10:49:05.504Z,975.06
2023-01-17T10:50:05.761Z,974.99
2023-01-17T10:51:05.546Z,975.00
2023-01-17T10:52:05.477Z,974.95
2023-01-17T10:53:05.512Z,974.97
2023-01-17T10:54:05.494Z,974.95
2023-01-17T10:55:05.476Z,974.96
2023-01-17T10:56:05.433Z,974.93
2023-01-17T10:57:05.435Z,974.97
2023-01-17T10:58:05.449Z,974.97
2023-01-17T10:59:05.590Z,974.97
2023-01-17T11:00:05.394Z,975.00
2023-01-17T11:01:05.439Z,974.94
2023-01-17T11:02:05.484Z,974.94
2023-01-17T11:03:05.370Z,974.93
2023-01-17T11:04:05.392Z,974.91
2023-01-17T11:05:05.335Z,974.93
2023-01-17T11:06:05.326Z,974.91
2023-01-17T11:07:05.743Z,974.88
2023-01-17T11:08:05.548Z,974.88
2023-01-17T11:09:05.315Z,974.91
2023-01-17T11:10:05.323Z,974.94
2023-01-17T11:11:05.275Z,974.96
2023-01-17T11:12:05.321Z,974.95
2023-01-17T11:13:05.235Z,975.01
2023-01-17T11:14:05.350Z,974.93
2023-01-17T11:15:05.457Z,975.01
2023-01-17T11:16:05.284Z,974.92
2023-01-17T11:17:05.258Z,974.92
2023-01-17T11:18:05.250Z,974.91
2023-01-17T11:19:05.258Z,974.91
2023-01-17T11:20:05.186Z,974.90
2023-01-17T11:21:05.162Z,974.92
2023-01-17T11:22:05.381Z,974.89
2023-01-17T11:23:05.198Z,974.89
2023-01-17T11:24:05.155Z,974.89
2023-01-17T11:25:05.159Z,974.86
2023-01-17T11:26:05.196Z,974.87
2023-01-17T11:27:05.183Z,974.84
2023-01-17T11:28:05.139Z,974.83
2023-01-17T11:29:05.112Z,974.83
2023-01-17T11:30:05.105Z,974.81
2023-01-17T11:31:05.145Z,974.85
2023-01-17T11:32:05.112Z,974.78
2023-01-17T11:33:05.072Z,974.82
2023-01-17T11:34:05.032Z,974.79
2023-01-17T11:35:05.273Z,974.74
2023-01-17T11:36:05.021Z,974.72
2023-01-17T11:37:05.013Z,974.74
2023-01-17T11:38:05.009Z,974.73
2023-01-17T11:39:05.015Z,974.64
2023-01-17T11:40:05.030Z,974.67
2023-01-17T11:41:04.989Z,974.63
2023-01-17T11:42:04.995Z,974.61
2023-01-17T11:43:04.981Z,974.59
2023-01-17T11:44:04.998Z,974.64
2023-01-17T11:45:04.923Z,974.61
2023-01-17T11:46:05.011Z,974.59
2023-01-17T11:47:04.927Z,974.57
2023-01-17T11:48:05.007Z,974.53
2023-01-17T11:49:04.890Z,974.56
2023-01-17T11:50:04.937Z,974.51
2023-01-17T11:51:04.855Z,974.49
2023-01-17T11:52:04.870Z,974.45
2023-01-17T11:53:04.853Z,974.42
2023-01-17T11:54:04.894Z,974.40
2023-01-17T11:55:04.826Z,974.37
2023-01-17T11:56:04.830Z,974.38
2023-01-17T11:57:04.841Z,974.33
2023-01-17T11:58:04.810Z,974.37
2023-01-17T11:59:04.872Z,974.39
2023-01-17T12:00:04.845Z,974.37
2023-01-17T12:01:04.803Z,974.39
2023-01-17T12:02:04.766Z,974.36
2023-01-17T12:03:04.778Z,974.37
2023-01-17T12:04:04.831Z,974.29
2023-01-17T12:05:04.830Z,974.28
2023-01-17T12:06:05.399Z,974.28
2023-01-17T12:07:04.705Z,974.26
2023-01-17T12:08:04.789Z,974.25
2023-01-17T12:09:04.689Z,974.22
2023-01-17T12:10:04.734Z,974.17
2023-01-17T12:11:04.706Z,974.16
2023-01-17T12:12:05.311Z,974.12
2023-01-17T12:13:04.665Z,974.12
2023-01-17T12:14:04.682Z,974.11
2023-01-17T12:15:04.693Z,974.09
2023-01-17T12:16:04.779Z,974.06
2023-01-17T12:17:04.608Z,974.06
2023-01-17T12:18:04.658Z,973.98
2023-01-17T12:19:04.618Z,973.97
2023-01-17T12:20:04.601Z,973.94
2023-01-17T12:21:04.590Z,973.89
2023-01-17T12:22:04.616Z,973.94
2023-01-17T12:23:04.571Z,973.90
2023-01-17T12:24:04.539Z,973.86
2023-01-17T12:25:04.603Z,973.88
2023-01-17T12:26:04.536Z,973.88
2023-01-17T12:27:04.546Z,973.95
2023-01-17T12:28:04.552Z,973.95